sensor_id;sensor_type;location;lat;lon;timestamp;P1;durP1;ratioP1;P2;durP2;ratioP2
37843;SDS011;63793;57.632;18.292;2023-08-01T00:02:16;2.65;;;2.25;;
37843;SDS011;63793;57.632;18.292;2023-08-01T00:04:43;3.80;;;2.10;;
37843;SDS011;63793;57.632;18.292;2023-08-01T00:07:10;4.38;;;2.35;;
37843;SDS011;63793;57.632;18.292;2023-08-01T00:09:37;8.57;;;3.75;;
37843;SDS011;63793;57.632;18.292;2023-08-01T00:12:04;4.45;;;1.80;;
37843;SDS011;63793;57.632;18.292;2023-08-01T00:14:31;3.78;;;2.55;;
37843;SDS011;63793;57.632;18.292;2023-08-01T00:16:59;2.70;;;1.98;;
37843;SDS011;63793;57.632;18.292;2023-08-01T00:19:26;4.93;;;2.30;;
37843;SDS011;63793;57.632;18.292;2023-08-01T00:21:53;5.30;;;2.40;;
37843;SDS011;63793;57.632;18.292;2023-08-01T00:24:20;7.07;;;3.08;;
37843;SDS011;63793;57.632;18.292;2023-08-01T00:26:47;3.42;;;1.70;;
37843;SDS011;63793;57.632;18.292;2023-08-01T00:29:14;5.15;;;2.85;;
37843;SDS011;63793;57.632;18.292;2023-08-01T00:31:41;4.15;;;2.53;;
37843;SDS011;63793;57.632;18.292;2023-08-01T00:34:08;4.03;;;2.38;;
37843;SDS011;63793;57.632;18.292;2023-08-01T00:36:34;12.75;;;3.15;;
37843;SDS011;63793;57.632;18.292;2023-08-01T00:39:01;4.70;;;2.75;;
37843;SDS011;63793;57.632;18.292;2023-08-01T00:41:28;2.97;;;2.58;;
37843;SDS011;63793;57.632;18.292;2023-08-01T00:43:55;2.97;;;2.20;;
37843;SDS011;63793;57.632;18.292;2023-08-01T00:46:22;4.47;;;2.53;;
37843;SDS011;63793;57.632;18.292;2023-08-01T00:48:49;2.75;;;2.55;;
37843;SDS011;63793;57.632;18.292;2023-08-01T00:51:16;3.40;;;3.10;;
37843;SDS011;63793;57.632;18.292;2023-08-01T00:53:44;4.63;;;3.40;;
37843;SDS011;63793;57.632;18.292;2023-08-01T00:56:12;5.18;;;2.85;;
37843;SDS011;63793;57.632;18.292;2023-08-01T00:58:39;3.33;;;2.35;;
37843;SDS011;63793;57.632;18.292;2023-08-01T01:01:06;5.30;;;2.72;;
37843;SDS011;63793;57.632;18.292;2023-08-01T01:03:33;4.80;;;2.70;;
37843;SDS011;63793;57.632;18.292;2023-08-01T01:06:11;3.50;;;2.40;;
37843;SDS011;63793;57.632;18.292;2023-08-01T01:08:58;6.15;;;4.03;;
37843;SDS011;63793;57.632;18.292;2023-08-01T01:11:25;3.75;;;2.90;;
37843;SDS011;63793;57.632;18.292;2023-08-01T01:13:52;4.90;;;2.85;;
37843;SDS011;63793;57.632;18.292;2023-08-01T01:16:20;2.85;;;2.28;;
37843;SDS011;63793;57.632;18.292;2023-08-01T01:18:47;3.33;;;2.50;;
37843;SDS011;63793;57.632;18.292;2023-08-01T01:21:14;2.97;;;2.30;;
37843;SDS011;63793;57.632;18.292;2023-08-01T01:23:41;5.68;;;2.92;;
37843;SDS011;63793;57.632;18.292;2023-08-01T01:26:09;3.00;;;2.58;;
37843;SDS011;63793;57.632;18.292;2023-08-01T01:28:37;5.90;;;3.92;;
37843;SDS011;63793;57.632;18.292;2023-08-01T01:31:06;3.70;;;2.85;;
37843;SDS011;63793;57.632;18.292;2023-08-01T01:33:33;4.47;;;2.97;;
37843;SDS011;63793;57.632;18.292;2023-08-01T01:36:01;5.97;;;2.80;;
37843;SDS011;63793;57.632;18.292;2023-08-01T01:38:28;3.15;;;2.70;;
37843;SDS011;63793;57.632;18.292;2023-08-01T01:40:55;4.00;;;2.95;;
37843;SDS011;63793;57.632;18.292;2023-08-01T01:43:22;3.85;;;2.38;;
37843;SDS011;63793;57.632;18.292;2023-08-01T01:45:49;3.22;;;2.53;;
37843;SDS011;63793;57.632;18.292;2023-08-01T01:48:16;4.90;;;3.72;;
37843;SDS011;63793;57.632;18.292;2023-08-01T01:50:43;4.68;;;3.58;;
37843;SDS011;63793;57.632;18.292;2023-08-01T01:53:10;5.25;;;2.38;;
37843;SDS011;63793;57.632;18.292;2023-08-01T01:55:37;3.10;;;2.78;;
37843;SDS011;63793;57.632;18.292;2023-08-01T01:58:04;4.18;;;2.75;;
37843;SDS011;63793;57.632;18.292;2023-08-01T02:00:31;4.45;;;2.88;;
37843;SDS011;63793;57.632;18.292;2023-08-01T02:02:58;5.68;;;2.28;;
37843;SDS011;63793;57.632;18.292;2023-08-01T02:05:25;5.13;;;3.63;;
37843;SDS011;63793;57.632;18.292;2023-08-01T02:07:52;7.07;;;2.88;;
37843;SDS011;63793;57.632;18.292;2023-08-01T02:10:18;3.92;;;3.08;;
37843;SDS011;63793;57.632;18.292;2023-08-01T02:12:45;3.67;;;2.47;;
37843;SDS011;63793;57.632;18.292;2023-08-01T02:15:12;6.95;;;3.17;;
37843;SDS011;63793;57.632;18.292;2023-08-01T02:17:39;3.00;;;2.28;;
37843;SDS011;63793;57.632;18.292;2023-08-01T02:20:06;5.55;;;2.97;;
37843;SDS011;63793;57.632;18.292;2023-08-01T02:22:33;5.10;;;2.63;;
37843;SDS011;63793;57.632;18.292;2023-08-01T02:25:00;3.22;;;2.13;;
37843;SDS011;63793;57.632;18.292;2023-08-01T02:27:27;5.50;;;2.72;;
37843;SDS011;63793;57.632;18.292;2023-08-01T02:29:54;8.75;;;2.92;;
37843;SDS011;63793;57.632;18.292;2023-08-01T02:32:21;3.72;;;3.38;;
37843;SDS011;63793;57.632;18.292;2023-08-01T02:34:49;4.28;;;2.80;;
37843;SDS011;63793;57.632;18.292;2023-08-01T02:37:16;6.00;;;3.63;;
37843;SDS011;63793;57.632;18.292;2023-08-01T02:39:43;4.93;;;2.88;;
37843;SDS011;63793;57.632;18.292;2023-08-01T02:42:09;8.73;;;3.30;;
37843;SDS011;63793;57.632;18.292;2023-08-01T02:44:36;4.28;;;2.20;;
37843;SDS011;63793;57.632;18.292;2023-08-01T02:47:03;2.70;;;2.13;;
37843;SDS011;63793;57.632;18.292;2023-08-01T02:49:32;4.75;;;2.67;;
37843;SDS011;63793;57.632;18.292;2023-08-01T02:51:59;7.22;;;3.08;;
37843;SDS011;63793;57.632;18.292;2023-08-01T02:54:26;4.82;;;3.20;;
37843;SDS011;63793;57.632;18.292;2023-08-01T02:56:53;4.57;;;2.78;;
37843;SDS011;63793;57.632;18.292;2023-08-01T02:59:19;4.78;;;3.10;;
37843;SDS011;63793;57.632;18.292;2023-08-01T03:01:46;2.67;;;2.47;;
37843;SDS011;63793;57.632;18.292;2023-08-01T03:04:13;3.88;;;2.90;;
37843;SDS011;63793;57.632;18.292;2023-08-01T03:06:41;7.60;;;3.25;;
37843;SDS011;63793;57.632;18.292;2023-08-01T03:09:08;4.43;;;3.70;;
37843;SDS011;63793;57.632;18.292;2023-08-01T03:11:35;6.93;;;2.92;;
37843;SDS011;63793;57.632;18.292;2023-08-01T03:14:03;5.05;;;3.63;;
37843;SDS011;63793;57.632;18.292;2023-08-01T03:16:33;8.97;;;4.03;;
37843;SDS011;63793;57.632;18.292;2023-08-01T03:18:59;5.40;;;3.33;;
37843;SDS011;63793;57.632;18.292;2023-08-01T03:21:34;3.63;;;3.30;;
37843;SDS011;63793;57.632;18.292;2023-08-01T03:24:01;5.65;;;3.45;;
37843;SDS011;63793;57.632;18.292;2023-08-01T03:26:30;5.10;;;2.88;;
37843;SDS011;63793;57.632;18.292;2023-08-01T03:28:56;4.57;;;3.13;;
37843;SDS011;63793;57.632;18.292;2023-08-01T03:31:24;3.83;;;2.92;;
37843;SDS011;63793;57.632;18.292;2023-08-01T03:33:52;6.07;;;3.38;;
37843;SDS011;63793;57.632;18.292;2023-08-01T03:36:19;5.32;;;4.00;;
37843;SDS011;63793;57.632;18.292;2023-08-01T03:38:46;4.85;;;3.63;;
37843;SDS011;63793;57.632;18.292;2023-08-01T03:41:15;5.28;;;3.00;;
37843;SDS011;63793;57.632;18.292;2023-08-01T03:43:42;5.82;;;3.65;;
37843;SDS011;63793;57.632;18.292;2023-08-01T03:46:09;3.97;;;2.70;;
37843;SDS011;63793;57.632;18.292;2023-08-01T03:48:36;4.10;;;2.60;;
37843;SDS011;63793;57.632;18.292;2023-08-01T03:51:03;7.25;;;2.45;;
37843;SDS011;63793;57.632;18.292;2023-08-01T03:53:30;4.65;;;3.20;;
37843;SDS011;63793;57.632;18.292;2023-08-01T03:55:57;4.65;;;3.63;;
37843;SDS011;63793;57.632;18.292;2023-08-01T03:58:24;5.53;;;2.53;;
37843;SDS011;63793;57.632;18.292;2023-08-01T04:00:51;3.58;;;2.88;;
37843;SDS011;63793;57.632;18.292;2023-08-01T04:03:18;6.95;;;3.10;;
37843;SDS011;63793;57.632;18.292;2023-08-01T04:05:45;5.82;;;3.30;;
37843;SDS011;63793;57.632;18.292;2023-08-01T04:08:12;4.40;;;3.75;;
37843;SDS011;63793;57.632;18.292;2023-08-01T04:10:39;5.85;;;3.83;;
37843;SDS011;63793;57.632;18.292;2023-08-01T04:13:06;4.30;;;2.88;;
37843;SDS011;63793;57.632;18.292;2023-08-01T04:15:33;4.90;;;3.25;;
37843;SDS011;63793;57.632;18.292;2023-08-01T04:18:00;4.97;;;3.50;;
37843;SDS011;63793;57.632;18.292;2023-08-01T04:20:27;6.25;;;2.95;;
37843;SDS011;63793;57.632;18.292;2023-08-01T04:22:53;4.10;;;3.22;;
37843;SDS011;63793;57.632;18.292;2023-08-01T04:25:21;12.05;;;3.75;;
37843;SDS011;63793;57.632;18.292;2023-08-01T04:27:50;5.20;;;3.15;;
37843;SDS011;63793;57.632;18.292;2023-08-01T04:30:17;3.67;;;2.67;;
37843;SDS011;63793;57.632;18.292;2023-08-01T04:32:44;4.03;;;3.10;;
37843;SDS011;63793;57.632;18.292;2023-08-01T04:35:11;4.90;;;2.90;;
37843;SDS011;63793;57.632;18.292;2023-08-01T04:37:38;7.47;;;3.50;;
37843;SDS011;63793;57.632;18.292;2023-08-01T04:40:05;7.07;;;3.30;;
37843;SDS011;63793;57.632;18.292;2023-08-01T04:42:32;6.55;;;3.30;;
37843;SDS011;63793;57.632;18.292;2023-08-01T04:44:59;3.38;;;2.88;;
37843;SDS011;63793;57.632;18.292;2023-08-01T04:47:26;5.82;;;3.22;;
37843;SDS011;63793;57.632;18.292;2023-08-01T04:49:53;3.42;;;2.72;;
37843;SDS011;63793;57.632;18.292;2023-08-01T04:52:20;9.07;;;3.47;;
37843;SDS011;63793;57.632;18.292;2023-08-01T04:54:47;6.95;;;2.38;;
37843;SDS011;63793;57.632;18.292;2023-08-01T04:57:13;5.20;;;3.38;;
37843;SDS011;63793;57.632;18.292;2023-08-01T04:59:40;2.35;;;2.15;;
37843;SDS011;63793;57.632;18.292;2023-08-01T05:02:07;4.95;;;2.70;;
37843;SDS011;63793;57.632;18.292;2023-08-01T05:04:34;3.97;;;2.88;;
37843;SDS011;63793;57.632;18.292;2023-08-01T05:07:01;3.25;;;2.30;;
37843;SDS011;63793;57.632;18.292;2023-08-01T05:09:28;5.10;;;3.33;;
37843;SDS011;63793;57.632;18.292;2023-08-01T05:11:55;3.13;;;2.83;;
37843;SDS011;63793;57.632;18.292;2023-08-01T05:14:22;4.80;;;3.35;;
37843;SDS011;63793;57.632;18.292;2023-08-01T05:16:49;3.80;;;3.03;;
37843;SDS011;63793;57.632;18.292;2023-08-01T05:19:15;6.55;;;4.10;;
37843;SDS011;63793;57.632;18.292;2023-08-01T05:21:42;4.32;;;3.05;;
37843;SDS011;63793;57.632;18.292;2023-08-01T05:24:09;3.25;;;2.80;;
37843;SDS011;63793;57.632;18.292;2023-08-01T05:26:36;4.60;;;2.67;;
37843;SDS011;63793;57.632;18.292;2023-08-01T05:29:04;5.90;;;4.03;;
37843;SDS011;63793;57.632;18.292;2023-08-01T05:31:30;4.60;;;3.00;;
37843;SDS011;63793;57.632;18.292;2023-08-01T05:33:58;4.22;;;2.45;;
37843;SDS011;63793;57.632;18.292;2023-08-01T05:36:24;5.30;;;2.83;;
37843;SDS011;63793;57.632;18.292;2023-08-01T05:38:51;3.95;;;2.67;;
37843;SDS011;63793;57.632;18.292;2023-08-01T05:41:18;5.20;;;3.08;;
37843;SDS011;63793;57.632;18.292;2023-08-01T05:43:46;3.13;;;2.83;;
37843;SDS011;63793;57.632;18.292;2023-08-01T05:46:14;2.47;;;2.25;;
37843;SDS011;63793;57.632;18.292;2023-08-01T05:48:42;3.03;;;2.83;;
37843;SDS011;63793;57.632;18.292;2023-08-01T05:51:09;5.65;;;3.15;;
37843;SDS011;63793;57.632;18.292;2023-08-01T05:53:36;5.43;;;3.28;;
37843;SDS011;63793;57.632;18.292;2023-08-01T05:56:03;3.85;;;2.90;;
37843;SDS011;63793;57.632;18.292;2023-08-01T05:58:31;2.60;;;2.30;;
37843;SDS011;63793;57.632;18.292;2023-08-01T06:00:57;3.42;;;2.10;;
37843;SDS011;63793;57.632;18.292;2023-08-01T06:03:24;4.07;;;2.45;;
37843;SDS011;63793;57.632;18.292;2023-08-01T06:05:52;3.70;;;2.40;;
37843;SDS011;63793;57.632;18.292;2023-08-01T06:08:18;5.22;;;3.28;;
37843;SDS011;63793;57.632;18.292;2023-08-01T06:10:45;2.70;;;2.40;;
37843;SDS011;63793;57.632;18.292;2023-08-01T06:13:12;6.75;;;2.72;;
37843;SDS011;63793;57.632;18.292;2023-08-01T06:15:39;3.20;;;2.25;;
37843;SDS011;63793;57.632;18.292;2023-08-01T06:18:06;2.90;;;2.50;;
37843;SDS011;63793;57.632;18.292;2023-08-01T06:20:33;3.92;;;2.97;;
37843;SDS011;63793;57.632;18.292;2023-08-01T06:23:00;6.03;;;3.20;;
37843;SDS011;63793;57.632;18.292;2023-08-01T06:25:27;2.50;;;2.10;;
37843;SDS011;63793;57.632;18.292;2023-08-01T06:27:54;2.67;;;2.40;;
37843;SDS011;63793;57.632;18.292;2023-08-01T06:30:20;4.15;;;3.53;;
37843;SDS011;63793;57.632;18.292;2023-08-01T06:32:47;2.42;;;1.98;;
37843;SDS011;63793;57.632;18.292;2023-08-01T06:35:14;3.47;;;2.63;;
37843;SDS011;63793;57.632;18.292;2023-08-01T06:37:41;2.97;;;2.05;;
37843;SDS011;63793;57.632;18.292;2023-08-01T06:40:09;4.38;;;2.30;;
37843;SDS011;63793;57.632;18.292;2023-08-01T06:42:36;4.75;;;2.28;;
37843;SDS011;63793;57.632;18.292;2023-08-01T06:45:03;3.22;;;2.55;;
37843;SDS011;63793;57.632;18.292;2023-08-01T06:47:30;3.47;;;2.65;;
37843;SDS011;63793;57.632;18.292;2023-08-01T06:49:57;2.58;;;1.55;;
37843;SDS011;63793;57.632;18.292;2023-08-01T06:52:24;2.67;;;1.83;;
37843;SDS011;63793;57.632;18.292;2023-08-01T06:54:51;3.95;;;2.17;;
37843;SDS011;63793;57.632;18.292;2023-08-01T06:57:18;2.00;;;1.70;;
37843;SDS011;63793;57.632;18.292;2023-08-01T06:59:45;4.00;;;1.88;;
37843;SDS011;63793;57.632;18.292;2023-08-01T07:02:12;2.90;;;1.70;;
37843;SDS011;63793;57.632;18.292;2023-08-01T07:04:38;2.17;;;1.73;;
37843;SDS011;63793;57.632;18.292;2023-08-01T07:07:05;3.65;;;2.17;;
37843;SDS011;63793;57.632;18.292;2023-08-01T07:09:34;2.38;;;1.95;;
37843;SDS011;63793;57.632;18.292;2023-08-01T07:12:01;2.95;;;2.20;;
37843;SDS011;63793;57.632;18.292;2023-08-01T07:14:28;3.17;;;1.92;;
37843;SDS011;63793;57.632;18.292;2023-08-01T07:16:55;2.10;;;1.42;;
37843;SDS011;63793;57.632;18.292;2023-08-01T07:19:22;3.13;;;2.15;;
37843;SDS011;63793;57.632;18.292;2023-08-01T07:21:49;3.97;;;2.88;;
37843;SDS011;63793;57.632;18.292;2023-08-01T07:24:16;2.45;;;2.05;;
37843;SDS011;63793;57.632;18.292;2023-08-01T07:26:43;2.00;;;1.70;;
37843;SDS011;63793;57.632;18.292;2023-08-01T07:29:10;2.05;;;1.88;;
37843;SDS011;63793;57.632;18.292;2023-08-01T07:31:37;1.88;;;1.77;;
37843;SDS011;63793;57.632;18.292;2023-08-01T07:34:04;2.13;;;1.67;;
37843;SDS011;63793;57.632;18.292;2023-08-01T07:36:31;2.10;;;1.90;;
37843;SDS011;63793;57.632;18.292;2023-08-01T07:38:58;2.70;;;2.33;;
37843;SDS011;63793;57.632;18.292;2023-08-01T07:41:25;2.80;;;1.90;;
37843;SDS011;63793;57.632;18.292;2023-08-01T07:43:52;5.25;;;1.80;;
37843;SDS011;63793;57.632;18.292;2023-08-01T07:46:19;5.40;;;2.53;;
37843;SDS011;63793;57.632;18.292;2023-08-01T07:48:46;2.42;;;2.00;;
37843;SDS011;63793;57.632;18.292;2023-08-01T07:51:13;2.65;;;2.30;;
37843;SDS011;63793;57.632;18.292;2023-08-01T07:53:39;2.92;;;2.42;;
37843;SDS011;63793;57.632;18.292;2023-08-01T07:56:06;4.13;;;2.10;;
37843;SDS011;63793;57.632;18.292;2023-08-01T07:58:35;2.38;;;2.13;;
37843;SDS011;63793;57.632;18.292;2023-08-01T08:01:03;2.47;;;1.88;;
37843;SDS011;63793;57.632;18.292;2023-08-01T08:03:30;2.70;;;2.00;;
37843;SDS011;63793;57.632;18.292;2023-08-01T08:05:57;4.72;;;2.45;;
37843;SDS011;63793;57.632;18.292;2023-08-01T08:08:25;3.97;;;1.90;;
37843;SDS011;63793;57.632;18.292;2023-08-01T08:10:53;3.03;;;1.73;;
37843;SDS011;63793;57.632;18.292;2023-08-01T08:13:19;2.38;;;2.13;;
37843;SDS011;63793;57.632;18.292;2023-08-01T08:15:47;2.75;;;1.80;;
37843;SDS011;63793;57.632;18.292;2023-08-01T08:18:14;1.95;;;1.73;;
37843;SDS011;63793;57.632;18.292;2023-08-01T08:20:44;2.20;;;1.48;;
37843;SDS011;63793;57.632;18.292;2023-08-01T08:23:11;3.85;;;0.98;;
37843;SDS011;63793;57.632;18.292;2023-08-01T08:25:40;2.00;;;1.20;;
37843;SDS011;63793;57.632;18.292;2023-08-01T08:28:08;3.33;;;1.52;;
37843;SDS011;63793;57.632;18.292;2023-08-01T08:30:35;1.67;;;1.20;;
37843;SDS011;63793;57.632;18.292;2023-08-01T08:33:03;2.38;;;1.58;;
37843;SDS011;63793;57.632;18.292;2023-08-01T08:35:31;1.98;;;1.05;;
37843;SDS011;63793;57.632;18.292;2023-08-01T08:37:58;1.23;;;0.95;;
37843;SDS011;63793;57.632;18.292;2023-08-01T08:40:26;1.05;;;0.95;;
37843;SDS011;63793;57.632;18.292;2023-08-01T08:42:53;2.40;;;1.23;;
37843;SDS011;63793;57.632;18.292;2023-08-01T08:45:20;1.55;;;1.27;;
37843;SDS011;63793;57.632;18.292;2023-08-01T08:47:50;1.55;;;1.45;;
37843;SDS011;63793;57.632;18.292;2023-08-01T08:50:22;1.30;;;1.20;;
37843;SDS011;63793;57.632;18.292;2023-08-01T08:52:50;2.25;;;1.02;;
37843;SDS011;63793;57.632;18.292;2023-08-01T08:55:17;2.67;;;1.30;;
37843;SDS011;63793;57.632;18.292;2023-08-01T08:57:51;1.63;;;1.40;;
37843;SDS011;63793;57.632;18.292;2023-08-01T09:00:18;3.63;;;1.20;;
37843;SDS011;63793;57.632;18.292;2023-08-01T09:02:47;2.38;;;1.35;;
37843;SDS011;63793;57.632;18.292;2023-08-01T09:05:14;1.30;;;0.88;;
37843;SDS011;63793;57.632;18.292;2023-08-01T09:07:42;2.60;;;1.23;;
37843;SDS011;63793;57.632;18.292;2023-08-01T09:10:12;0.88;;;0.75;;
37843;SDS011;63793;57.632;18.292;2023-08-01T09:12:39;1.38;;;1.27;;
37843;SDS011;63793;57.632;18.292;2023-08-01T09:15:06;1.10;;;1.00;;
37843;SDS011;63793;57.632;18.292;2023-08-01T09:17:35;2.38;;;1.33;;
37843;SDS011;63793;57.632;18.292;2023-08-01T09:20:05;1.20;;;1.10;;
37843;SDS011;63793;57.632;18.292;2023-08-01T09:22:45;0.80;;;0.70;;
37843;SDS011;63793;57.632;18.292;2023-08-01T09:27:40;1.00;;;0.65;;
37843;SDS011;63793;57.632;18.292;2023-08-01T09:30:11;1.15;;;1.05;;
37843;SDS011;63793;57.632;18.292;2023-08-01T09:32:54;1.85;;;1.00;;
37843;SDS011;63793;57.632;18.292;2023-08-01T09:35:23;2.00;;;1.25;;
37843;SDS011;63793;57.632;18.292;2023-08-01T09:37:51;1.15;;;0.85;;
37843;SDS011;63793;57.632;18.292;2023-08-01T09:40:18;1.05;;;0.90;;
37843;SDS011;63793;57.632;18.292;2023-08-01T09:42:45;1.05;;;0.88;;
37843;SDS011;63793;57.632;18.292;2023-08-01T09:47:41;0.77;;;0.70;;
37843;SDS011;63793;57.632;18.292;2023-08-01T09:50:09;1.00;;;0.63;;
37843;SDS011;63793;57.632;18.292;2023-08-01T09:52:37;1.33;;;1.13;;
37843;SDS011;63793;57.632;18.292;2023-08-01T09:55:04;1.02;;;0.70;;
37843;SDS011;63793;57.632;18.292;2023-08-01T09:57:31;1.77;;;0.50;;
37843;SDS011;63793;57.632;18.292;2023-08-01T10:00:00;1.77;;;0.57;;
37843;SDS011;63793;57.632;18.292;2023-08-01T10:02:37;1.30;;;0.73;;
37843;SDS011;63793;57.632;18.292;2023-08-01T10:05:08;3.88;;;1.10;;
37843;SDS011;63793;57.632;18.292;2023-08-01T10:07:37;1.83;;;1.05;;
37843;SDS011;63793;57.632;18.292;2023-08-01T10:10:06;0.97;;;0.87;;
37843;SDS011;63793;57.632;18.292;2023-08-01T10:12:34;1.63;;;1.50;;
37843;SDS011;63793;57.632;18.292;2023-08-01T10:15:03;2.22;;;1.40;;
37843;SDS011;63793;57.632;18.292;2023-08-01T10:17:31;2.42;;;1.90;;
37843;SDS011;63793;57.632;18.292;2023-08-01T10:20:00;4.00;;;1.47;;
37843;SDS011;63793;57.632;18.292;2023-08-01T10:22:28;1.58;;;0.80;;
37843;SDS011;63793;57.632;18.292;2023-08-01T10:24:55;2.20;;;1.98;;
37843;SDS011;63793;57.632;18.292;2023-08-01T10:27:23;0.82;;;0.60;;
37843;SDS011;63793;57.632;18.292;2023-08-01T10:29:57;0.50;;;0.50;;
37843;SDS011;63793;57.632;18.292;2023-08-01T10:32:34;1.13;;;0.73;;
37843;SDS011;63793;57.632;18.292;2023-08-01T10:35:03;1.55;;;0.85;;
37843;SDS011;63793;57.632;18.292;2023-08-01T10:37:40;0.70;;;0.65;;
37843;SDS011;63793;57.632;18.292;2023-08-01T10:40:07;1.50;;;0.50;;
37843;SDS011;63793;57.632;18.292;2023-08-01T10:42:39;2.08;;;0.90;;
37843;SDS011;63793;57.632;18.292;2023-08-01T10:45:07;1.65;;;0.45;;
37843;SDS011;63793;57.632;18.292;2023-08-01T10:47:45;2.15;;;0.70;;
37843;SDS011;63793;57.632;18.292;2023-08-01T10:50:13;1.35;;;0.55;;
37843;SDS011;63793;57.632;18.292;2023-08-01T10:52:42;0.73;;;0.43;;
37843;SDS011;63793;57.632;18.292;2023-08-01T10:55:09;1.95;;;1.67;;
37843;SDS011;63793;57.632;18.292;2023-08-01T10:57:39;0.63;;;0.63;;
37843;SDS011;63793;57.632;18.292;2023-08-01T11:00:15;0.65;;;0.65;;
37843;SDS011;63793;57.632;18.292;2023-08-01T11:02:50;1.67;;;0.45;;
37843;SDS011;63793;57.632;18.292;2023-08-01T11:05:20;2.85;;;0.80;;
37843;SDS011;63793;57.632;18.292;2023-08-01T11:07:53;1.20;;;0.82;;
37843;SDS011;63793;57.632;18.292;2023-08-01T11:10:21;0.80;;;0.60;;
37843;SDS011;63793;57.632;18.292;2023-08-01T11:12:49;4.80;;;1.10;;
37843;SDS011;63793;57.632;18.292;2023-08-01T11:15:16;1.60;;;0.68;;
37843;SDS011;63793;57.632;18.292;2023-08-01T11:17:48;2.03;;;1.15;;
37843;SDS011;63793;57.632;18.292;2023-08-01T11:20:20;0.77;;;0.50;;
37843;SDS011;63793;57.632;18.292;2023-08-01T11:22:50;1.17;;;0.65;;
37843;SDS011;63793;57.632;18.292;2023-08-01T11:25:17;1.15;;;0.70;;
37843;SDS011;63793;57.632;18.292;2023-08-01T11:27:43;3.88;;;1.33;;
37843;SDS011;63793;57.632;18.292;2023-08-01T11:30:11;2.35;;;0.90;;
37843;SDS011;63793;57.632;18.292;2023-08-01T11:32:38;1.17;;;0.52;;
37843;SDS011;63793;57.632;18.292;2023-08-01T11:35:05;1.65;;;0.77;;
37843;SDS011;63793;57.632;18.292;2023-08-01T11:37:32;2.28;;;0.95;;
37843;SDS011;63793;57.632;18.292;2023-08-01T11:39:59;2.05;;;0.80;;
37843;SDS011;63793;57.632;18.292;2023-08-01T11:42:30;2.53;;;0.65;;
37843;SDS011;63793;57.632;18.292;2023-08-01T11:45:12;0.90;;;0.75;;
37843;SDS011;63793;57.632;18.292;2023-08-01T11:47:48;1.02;;;0.73;;
37843;SDS011;63793;57.632;18.292;2023-08-01T11:50:20;0.90;;;0.70;;
37843;SDS011;63793;57.632;18.292;2023-08-01T11:52:49;0.80;;;0.70;;
37843;SDS011;63793;57.632;18.292;2023-08-01T11:55:23;4.57;;;1.42;;
37843;SDS011;63793;57.632;18.292;2023-08-01T11:57:58;2.50;;;1.75;;
37843;SDS011;63793;57.632;18.292;2023-08-01T12:00:26;3.28;;;1.00;;
37843;SDS011;63793;57.632;18.292;2023-08-01T12:03:06;1.60;;;1.00;;
37843;SDS011;63793;57.632;18.292;2023-08-01T12:05:40;3.28;;;0.80;;
37843;SDS011;63793;57.632;18.292;2023-08-01T12:08:14;0.85;;;0.85;;
37843;SDS011;63793;57.632;18.292;2023-08-01T12:10:42;3.03;;;0.93;;
37843;SDS011;63793;57.632;18.292;2023-08-01T12:13:44;2.92;;;1.02;;
37843;SDS011;63793;57.632;18.292;2023-08-01T12:16:04;1.67;;;0.90;;
37843;SDS011;63793;57.632;18.292;2023-08-01T12:18:31;1.77;;;1.27;;
37843;SDS011;63793;57.632;18.292;2023-08-01T12:21:01;3.30;;;1.13;;
37843;SDS011;63793;57.632;18.292;2023-08-01T12:23:28;3.10;;;1.52;;
37843;SDS011;63793;57.632;18.292;2023-08-01T12:25:55;2.25;;;1.30;;
37843;SDS011;63793;57.632;18.292;2023-08-01T12:28:22;2.28;;;1.42;;
37843;SDS011;63793;57.632;18.292;2023-08-01T12:30:48;1.25;;;1.08;;
37843;SDS011;63793;57.632;18.292;2023-08-01T12:33:17;1.73;;;1.08;;
37843;SDS011;63793;57.632;18.292;2023-08-01T12:35:44;4.28;;;2.42;;
37843;SDS011;63793;57.632;18.292;2023-08-01T12:38:11;1.85;;;1.50;;
37843;SDS011;63793;57.632;18.292;2023-08-01T12:40:38;1.80;;;1.45;;
37843;SDS011;63793;57.632;18.292;2023-08-01T12:43:05;1.48;;;1.33;;
37843;SDS011;63793;57.632;18.292;2023-08-01T12:45:31;2.25;;;1.98;;
37843;SDS011;63793;57.632;18.292;2023-08-01T12:47:58;1.52;;;1.40;;
37843;SDS011;63793;57.632;18.292;2023-08-01T12:50:26;2.60;;;1.50;;
37843;SDS011;63793;57.632;18.292;2023-08-01T12:52:52;3.58;;;1.90;;
37843;SDS011;63793;57.632;18.292;2023-08-01T12:55:19;2.55;;;1.83;;
37843;SDS011;63793;57.632;18.292;2023-08-01T12:57:46;5.35;;;1.98;;
37843;SDS011;63793;57.632;18.292;2023-08-01T13:00:13;2.28;;;1.83;;
37843;SDS011;63793;57.632;18.292;2023-08-01T13:02:40;2.47;;;2.28;;
37843;SDS011;63793;57.632;18.292;2023-08-01T13:05:07;1.98;;;1.77;;
37843;SDS011;63793;57.632;18.292;2023-08-01T13:07:34;1.88;;;1.52;;
37843;SDS011;63793;57.632;18.292;2023-08-01T13:10:01;2.05;;;1.80;;
37843;SDS011;63793;57.632;18.292;2023-08-01T13:12:29;3.15;;;2.13;;
37843;SDS011;63793;57.632;18.292;2023-08-01T13:14:56;3.88;;;3.47;;
37843;SDS011;63793;57.632;18.292;2023-08-01T13:17:41;5.72;;;2.42;;
37843;SDS011;63793;57.632;18.292;2023-08-01T13:20:08;2.35;;;2.15;;
37843;SDS011;63793;57.632;18.292;2023-08-01T13:22:35;2.67;;;2.47;;
37843;SDS011;63793;57.632;18.292;2023-08-01T13:25:02;3.53;;;2.03;;
37843;SDS011;63793;57.632;18.292;2023-08-01T13:27:30;2.35;;;2.08;;
37843;SDS011;63793;57.632;18.292;2023-08-01T13:29:56;5.45;;;2.85;;
37843;SDS011;63793;57.632;18.292;2023-08-01T13:32:23;4.38;;;2.30;;
37843;SDS011;63793;57.632;18.292;2023-08-01T13:34:50;4.32;;;2.47;;
37843;SDS011;63793;57.632;18.292;2023-08-01T13:37:17;3.05;;;2.22;;
37843;SDS011;63793;57.632;18.292;2023-08-01T13:39:44;4.43;;;2.35;;
37843;SDS011;63793;57.632;18.292;2023-08-01T13:42:12;2.70;;;2.50;;
37843;SDS011;63793;57.632;18.292;2023-08-01T13:44:39;4.22;;;2.53;;
37843;SDS011;63793;57.632;18.292;2023-08-01T13:47:07;5.97;;;2.75;;
37843;SDS011;63793;57.632;18.292;2023-08-01T13:49:34;3.90;;;2.20;;
37843;SDS011;63793;57.632;18.292;2023-08-01T13:52:01;2.63;;;1.90;;
37843;SDS011;63793;57.632;18.292;2023-08-01T13:54:29;2.92;;;2.63;;
37843;SDS011;63793;57.632;18.292;2023-08-01T13:56:56;4.35;;;2.75;;
37843;SDS011;63793;57.632;18.292;2023-08-01T13:59:23;2.63;;;2.35;;
37843;SDS011;63793;57.632;18.292;2023-08-01T14:01:50;3.00;;;1.92;;
37843;SDS011;63793;57.632;18.292;2023-08-01T14:04:18;2.65;;;1.60;;
37843;SDS011;63793;57.632;18.292;2023-08-01T14:06:46;3.80;;;2.13;;
37843;SDS011;63793;57.632;18.292;2023-08-01T14:09:13;5.68;;;2.45;;
37843;SDS011;63793;57.632;18.292;2023-08-01T14:11:41;1.75;;;1.65;;
37843;SDS011;63793;57.632;18.292;2023-08-01T14:14:08;3.33;;;2.20;;
37843;SDS011;63793;57.632;18.292;2023-08-01T14:16:35;2.38;;;1.38;;
37843;SDS011;63793;57.632;18.292;2023-08-01T14:19:02;2.47;;;1.73;;
37843;SDS011;63793;57.632;18.292;2023-08-01T14:21:30;2.78;;;1.05;;
37843;SDS011;63793;57.632;18.292;2023-08-01T14:23:57;2.53;;;1.45;;
37843;SDS011;63793;57.632;18.292;2023-08-01T14:26:24;1.48;;;1.13;;
37843;SDS011;63793;57.632;18.292;2023-08-01T14:28:51;1.23;;;1.13;;
37843;SDS011;63793;57.632;18.292;2023-08-01T14:31:17;4.20;;;0.90;;
37843;SDS011;63793;57.632;18.292;2023-08-01T14:33:45;1.85;;;0.80;;
37843;SDS011;63793;57.632;18.292;2023-08-01T14:36:12;1.77;;;0.80;;
37843;SDS011;63793;57.632;18.292;2023-08-01T14:38:39;2.00;;;1.40;;
37843;SDS011;63793;57.632;18.292;2023-08-01T14:41:06;1.45;;;0.80;;
37843;SDS011;63793;57.632;18.292;2023-08-01T14:43:53;1.90;;;1.30;;